sensor_id;sensor_type;location;lat;lon;timestamp;pressure;altitude;pressure_sealevel;temperature;humidity
22047;BME280;11187;49.412;20.956;2023-08-01T00:00:31;94602.41;;;14.14;100.00
22047;BME280;11187;49.412;20.956;2023-08-01T00:03:26;94596.56;;;14.10;100.00
22047;BME280;11187;49.412;20.956;2023-08-01T00:06:00;94591.53;;;14.07;100.00
22047;BME280;11187;49.412;20.956;2023-08-01T00:08:46;94588.25;;;14.04;100.00
22047;BME280;11187;49.412;20.956;2023-08-01T00:11:20;94591.75;;;14.01;100.00
22047;BME280;11187;49.412;20.956;2023-08-01T00:14:06;94591.91;;;13.98;100.00
22047;BME280;11187;49.412;20.956;2023-08-01T00:16:40;94582.50;;;13.97;100.00
22047;BME280;11187;49.412;20.956;2023-08-01T00:19:33;94584.31;;;13.95;100.00
22047;BME280;11187;49.412;20.956;2023-08-01T00:22:27;94580.81;;;13.96;100.00
22047;BME280;11187;49.412;20.956;2023-08-01T00:25:01;94576.63;;;13.93;100.00
22047;BME280;11187;49.412;20.956;2023-08-01T00:27:47;94573.38;;;13.90;100.00
22047;BME280;11187;49.412;20.956;2023-08-01T00:30:21;94575.03;;;13.91;100.00
22047;BME280;11187;49.412;20.956;2023-08-01T00:33:07;94570.66;;;13.93;100.00
22047;BME280;11187;49.412;20.956;2023-08-01T00:35:41;94570.63;;;13.94;100.00
22047;BME280;11187;49.412;20.956;2023-08-01T00:38:28;94573.09;;;13.96;100.00
22047;BME280;11187;49.412;20.956;2023-08-01T00:41:01;94576.50;;;13.96;100.00
22047;BME280;11187;49.412;20.956;2023-08-01T00:43:47;94572.28;;;13.95;100.00
22047;BME280;11187;49.412;20.956;2023-08-01T00:46:21;94575.81;;;13.93;100.00
22047;BME280;11187;49.412;20.956;2023-08-01T00:49:08;94580.22;;;13.89;100.00
22047;BME280;11187;49.412;20.956;2023-08-01T00:51:42;94576.88;;;13.87;100.00
22047;BME280;11187;49.412;20.956;2023-08-01T00:54:29;94576.97;;;13.86;100.00
22047;BME280;11187;49.412;20.956;2023-08-01T00:57:08;94577.97;;;13.82;100.00
22047;BME280;11187;49.412;20.956;2023-08-01T00:59:55;94576.28;;;13.81;100.00
22047;BME280;11187;49.412;20.956;2023-08-01T01:02:30;94566.84;;;13.81;100.00
22047;BME280;11187;49.412;20.956;2023-08-01T01:05:19;94554.88;;;13.80;100.00
22047;BME280;11187;49.412;20.956;2023-08-01T01:07:54;94554.03;;;13.79;100.00
22047;BME280;11187;49.412;20.956;2023-08-01T01:10:47;94556.56;;;13.81;100.00
22047;BME280;11187;49.412;20.956;2023-08-01T01:13:41;94551.41;;;13.81;100.00
22047;BME280;11187;49.412;20.956;2023-08-01T01:16:15;94545.41;;;13.81;100.00
22047;BME280;11187;49.412;20.956;2023-08-01T01:19:01;94549.72;;;13.80;100.00
22047;BME280;11187;49.412;20.956;2023-08-01T01:21:38;94541.16;;;13.79;100.00
22047;BME280;11187;49.412;20.956;2023-08-01T01:24:26;94542.13;;;13.77;100.00
22047;BME280;11187;49.412;20.956;2023-08-01T01:27:00;94541.34;;;13.75;100.00
22047;BME280;11187;49.412;20.956;2023-08-01T01:29:48;94538.97;;;13.70;100.00
22047;BME280;11187;49.412;20.956;2023-08-01T01:32:22;94533.03;;;13.68;100.00
22047;BME280;11187;49.412;20.956;2023-08-01T01:35:09;94527.94;;;13.67;100.00
22047;BME280;11187;49.412;20.956;2023-08-01T01:37:43;94528.91;;;13.64;100.00
22047;BME280;11187;49.412;20.956;2023-08-01T01:40:30;94524.72;;;13.62;100.00
22047;BME280;11187;49.412;20.956;2023-08-01T01:43:24;94524.88;;;13.58;100.00
22047;BME280;11187;49.412;20.956;2023-08-01T01:46:18;94516.38;;;13.56;100.00
22047;BME280;11187;49.412;20.956;2023-08-01T01:49:12;94519.81;;;13.55;100.00
22047;BME280;11187;49.412;20.956;2023-08-01T01:51:46;94510.44;;;13.54;100.00
22047;BME280;11187;49.412;20.956;2023-08-01T01:54:39;94507.03;;;13.54;100.00
22047;BME280;11187;49.412;20.956;2023-08-01T01:57:33;94505.44;;;13.51;100.00
22047;BME280;11187;49.412;20.956;2023-08-01T02:00:09;94495.16;;;13.51;100.00
22047;BME280;11187;49.412;20.956;2023-08-01T02:03:03;94500.34;;;13.50;100.00
22047;BME280;11187;49.412;20.956;2023-08-01T02:05:59;94495.25;;;13.48;100.00
22047;BME280;11187;49.412;20.956;2023-08-01T02:08:33;94498.72;;;13.47;100.00
22047;BME280;11187;49.412;20.956;2023-08-01T02:11:19;94497.91;;;13.47;100.00
22047;BME280;11187;49.412;20.956;2023-08-01T02:13:53;94496.22;;;13.46;100.00
22047;BME280;11187;49.412;20.956;2023-08-01T02:16:41;94496.34;;;13.43;100.00
22047;BME280;11187;49.412;20.956;2023-08-01T02:19:15;94492.09;;;13.42;100.00
22047;BME280;11187;49.412;20.956;2023-08-01T02:22:01;94496.41;;;13.41;100.00
22047;BME280;11187;49.412;20.956;2023-08-01T02:24:35;94487.84;;;13.41;100.00
22047;BME280;11187;49.412;20.956;2023-08-01T02:27:28;94483.66;;;13.38;100.00
22047;BME280;11187;49.412;20.956;2023-08-01T02:30:02;94483.00;;;13.33;100.00
22047;BME280;11187;49.412;20.956;2023-08-01T02:32:55;94479.50;;;13.35;100.00
22047;BME280;11187;49.412;20.956;2023-08-01T02:35:29;94479.50;;;13.35;100.00
22047;BME280;11187;49.412;20.956;2023-08-01T02:38:23;94468.53;;;13.30;100.00
22047;BME280;11187;49.412;20.956;2023-08-01T02:40:57;94468.63;;;13.27;100.00
22047;BME280;11187;49.412;20.956;2023-08-01T02:43:50;94465.31;;;13.24;100.00
22047;BME280;11187;49.412;20.956;2023-08-01T02:46:24;94465.41;;;13.22;100.00
22047;BME280;11187;49.412;20.956;2023-08-01T02:49:17;94462.88;;;13.21;100.00
22047;BME280;11187;49.412;20.956;2023-08-01T02:52:11;94454.44;;;13.17;100.00
22047;BME280;11187;49.412;20.956;2023-08-01T02:54:45;94457.09;;;13.15;100.00
22047;BME280;11187;49.412;20.956;2023-08-01T02:57:31;94459.75;;;13.12;100.00
22047;BME280;11187;49.412;20.956;2023-08-01T03:00:05;94458.09;;;13.11;100.00
22047;BME280;11187;49.412;20.956;2023-08-01T03:02:52;94450.44;;;13.10;100.00
22047;BME280;11187;49.412;20.956;2023-08-01T03:05:26;94452.97;;;13.11;100.00
22047;BME280;11187;49.412;20.956;2023-08-01T03:08:12;94450.41;;;13.11;100.00
22047;BME280;11187;49.412;20.956;2023-08-01T03:10:46;94441.91;;;13.09;100.00
22047;BME280;11187;49.412;20.956;2023-08-01T03:13:39;94437.72;;;13.07;100.00
22047;BME280;11187;49.412;20.956;2023-08-01T03:16:13;94442.09;;;13.05;100.00
22047;BME280;11187;49.412;20.956;2023-08-01T03:18:59;94436.94;;;13.05;100.00
22047;BME280;11187;49.412;20.956;2023-08-01T03:21:40;94434.50;;;13.02;100.00
22047;BME280;11187;49.412;20.956;2023-08-01T03:24:26;94432.00;;;13.00;100.00
22047;BME280;11187;49.412;20.956;2023-08-01T03:27:00;94428.59;;;13.00;100.00
22047;BME280;11187;49.412;20.956;2023-08-01T03:29:46;94420.97;;;12.96;100.00
22047;BME280;11187;49.412;20.956;2023-08-01T03:32:20;94427.81;;;12.98;100.00
22047;BME280;11187;49.412;20.956;2023-08-01T03:35:14;94423.63;;;12.95;100.00
22047;BME280;11187;49.412;20.956;2023-08-01T03:37:47;94419.31;;;12.95;100.00
22047;BME280;11187;49.412;20.956;2023-08-01T03:40:33;94423.69;;;12.93;100.00
22047;BME280;11187;49.412;20.956;2023-08-01T03:43:27;94416.03;;;12.92;100.00
22047;BME280;11187;49.412;20.956;2023-08-01T03:46:01;94414.34;;;12.91;100.00
22047;BME280;11187;49.412;20.956;2023-08-01T03:48:47;94408.31;;;12.92;100.00
22047;BME280;11187;49.412;20.956;2023-08-01T03:51:21;94412.56;;;12.93;100.00
22047;BME280;11187;49.412;20.956;2023-08-01T03:54:07;94406.53;;;12.94;100.00
22047;BME280;11187;49.412;20.956;2023-08-01T03:56:41;94407.44;;;12.93;100.00
22047;BME280;11187;49.412;20.956;2023-08-01T03:59:27;94400.56;;;12.93;100.00
22047;BME280;11187;49.412;20.956;2023-08-01T04:02:01;94394.53;;;12.94;100.00
22047;BME280;11187;49.412;20.956;2023-08-01T04:04:54;94398.75;;;12.95;100.00
22047;BME280;11187;49.412;20.956;2023-08-01T04:07:28;94384.19;;;12.96;100.00
22047;BME280;11187;49.412;20.956;2023-08-01T04:10:22;94390.09;;;12.98;100.00
22047;BME280;11187;49.412;20.956;2023-08-01T04:13:16;94386.69;;;12.98;100.00
22047;BME280;11187;49.412;20.956;2023-08-01T04:16:09;94385.00;;;12.96;100.00
22047;BME280;11187;49.412;20.956;2023-08-01T04:18:43;94396.16;;;12.97;100.00
22047;BME280;11187;49.412;20.956;2023-08-01T04:21:29;94398.63;;;12.99;100.00
22047;BME280;11187;49.412;20.956;2023-08-01T04:24:03;94391.78;;;12.99;100.00
22047;BME280;11187;49.412;20.956;2023-08-01T04:26:49;94389.97;;;13.01;100.00
22047;BME280;11187;49.412;20.956;2023-08-01T04:29:23;94390.69;;;13.05;100.00
22047;BME280;11187;49.412;20.956;2023-08-01T04:32:17;94386.19;;;13.10;100.00
22047;BME280;11187;49.412;20.956;2023-08-01T04:35:11;94386.94;;;13.13;100.00
22047;BME280;11187;49.412;20.956;2023-08-01T04:37:45;94385.81;;;13.19;100.00
22047;BME280;11187;49.412;20.956;2023-08-01T04:40:31;94383.84;;;13.26;100.00
22047;BME280;11187;49.412;20.956;2023-08-01T04:43:25;94383.63;;;13.32;100.00
22047;BME280;11187;49.412;20.956;2023-08-01T04:46:19;94378.94;;;13.42;100.00
22047;BME280;11187;49.412;20.956;2023-08-01T04:48:53;94373.38;;;13.52;100.00
22047;BME280;11187;49.412;20.956;2023-08-01T04:51:48;94369.38;;;13.66;100.00
22047;BME280;11187;49.412;20.956;2023-08-01T04:54:22;94372.97;;;13.82;100.00
22047;BME280;11187;49.412;20.956;2023-08-01T04:57:08;94360.41;;;13.95;100.00
22047;BME280;11187;49.412;20.956;2023-08-01T04:59:42;94366.63;;;14.10;100.00
22047;BME280;11187;49.412;20.956;2023-08-01T05:02:35;94367.63;;;14.26;100.00
22047;BME280;11187;49.412;20.956;2023-08-01T05:05:29;94367.00;;;14.40;100.00
22047;BME280;11187;49.412;20.956;2023-08-01T05:08:23;94371.41;;;14.57;100.00
22047;BME280;11187;49.412;20.956;2023-08-01T05:10:57;94361.38;;;14.70;100.00
22047;BME280;11187;49.412;20.956;2023-08-01T05:13:43;94353.06;;;14.82;100.00
22047;BME280;11187;49.412;20.956;2023-08-01T05:16:17;94359.47;;;14.92;100.00
22047;BME280;11187;49.412;20.956;2023-08-01T05:19:03;94351.22;;;15.03;100.00
22047;BME280;11187;49.412;20.956;2023-08-01T05:21:37;94355.09;;;15.12;100.00
22047;BME280;11187;49.412;20.956;2023-08-01T05:24:30;94345.31;;;15.18;100.00
22047;BME280;11187;49.412;20.956;2023-08-01T05:27:04;94348.44;;;15.25;100.00
22047;BME280;11187;49.412;20.956;2023-08-01T05:29:51;94343.66;;;15.35;100.00
22047;BME280;11187;49.412;20.956;2023-08-01T05:32:25;94344.06;;;15.44;100.00
22047;BME280;11187;49.412;20.956;2023-08-01T05:35:11;94349.41;;;15.57;100.00
22047;BME280;11187;49.412;20.956;2023-08-01T05:37:45;94346.47;;;15.65;100.00
22047;BME280;11187;49.412;20.956;2023-08-01T05:40:38;94351.25;;;15.73;100.00
22047;BME280;11187;49.412;20.956;2023-08-01T05:43:13;94347.44;;;15.80;100.00
22047;BME280;11187;49.412;20.956;2023-08-01T05:46:06;94340.75;;;15.93;100.00
22047;BME280;11187;49.412;20.956;2023-08-01T05:48:40;94342.53;;;16.08;100.00
22047;BME280;11187;49.412;20.956;2023-08-01T05:51:26;94337.41;;;16.24;100.00
22047;BME280;11187;49.412;20.956;2023-08-01T05:54:02;94337.50;;;16.39;100.00
22047;BME280;11187;49.412;20.956;2023-08-01T05:56:51;94342.84;;;16.52;100.00
22047;BME280;11187;49.412;20.956;2023-08-01T05:59:24;94342.03;;;16.67;100.00
22047;BME280;11187;49.412;20.956;2023-08-01T06:02:17;94334.28;;;16.83;100.00
22047;BME280;11187;49.412;20.956;2023-08-01T06:05:11;94331.69;;;16.99;100.00
22047;BME280;11187;49.412;20.956;2023-08-01T06:08:06;94327.22;;;17.17;100.00
22047;BME280;11187;49.412;20.956;2023-08-01T06:11:02;94324.50;;;17.34;100.00
22047;BME280;11187;49.412;20.956;2023-08-01T06:13:36;94323.44;;;17.52;100.00
22047;BME280;11187;49.412;20.956;2023-08-01T06:16:22;94326.88;;;17.67;100.00
22047;BME280;11187;49.412;20.956;2023-08-01T06:18:56;94317.31;;;17.84;100.00
22047;BME280;11187;49.412;20.956;2023-08-01T06:21:42;94321.47;;;18.01;100.00
22047;BME280;11187;49.412;20.956;2023-08-01T06:24:16;94321.22;;;18.20;100.00
22047;BME280;11187;49.412;20.956;2023-08-01T06:27:09;94320.81;;;18.40;100.00
22047;BME280;11187;49.412;20.956;2023-08-01T06:29:43;94321.25;;;18.61;100.00
22047;BME280;11187;49.412;20.956;2023-08-01T06:32:36;94317.44;;;18.81;100.00
22047;BME280;11187;49.412;20.956;2023-08-01T06:35:30;94318.75;;;19.01;100.00
22047;BME280;11187;49.412;20.956;2023-08-01T06:38:04;94310.69;;;19.18;100.00
22047;BME280;11187;49.412;20.956;2023-08-01T06:40:53;94312.00;;;19.38;100.00
22047;BME280;11187;49.412;20.956;2023-08-01T06:43:47;94316.28;;;19.52;100.00
22047;BME280;11187;49.412;20.956;2023-08-01T06:46:41;94325.66;;;19.68;100.00
22047;BME280;11187;49.412;20.956;2023-08-01T06:49:15;94320.28;;;19.84;100.00
22047;BME280;11187;49.412;20.956;2023-08-01T06:52:02;94311.88;;;19.93;100.00
22047;BME280;11187;49.412;20.956;2023-08-01T06:54:35;94304.50;;;19.99;100.00
22047;BME280;11187;49.412;20.956;2023-08-01T06:57:21;94300.53;;;20.07;100.00
22047;BME280;11187;49.412;20.956;2023-08-01T06:59:55;94304.28;;;20.15;100.00
22047;BME280;11187;49.412;20.956;2023-08-01T07:02:45;94300.94;;;20.26;100.00
22047;BME280;11187;49.412;20.956;2023-08-01T07:05:19;94300.19;;;20.37;100.00
22047;BME280;11187;49.412;20.956;2023-08-01T07:08:12;94303.59;;;20.50;94.71
22047;BME280;11187;49.412;20.956;2023-08-01T07:10:48;94291.91;;;20.69;94.09
22047;BME280;11187;49.412;20.956;2023-08-01T07:13:41;94288.22;;;20.84;94.31
22047;BME280;11187;49.412;20.956;2023-08-01T07:16:35;94291.81;;;20.94;93.41
22047;BME280;11187;49.412;20.956;2023-08-01T07:19:09;94283.44;;;21.02;90.62
22047;BME280;11187;49.412;20.956;2023-08-01T07:21:59;94286.44;;;21.09;92.13
22047;BME280;11187;49.412;20.956;2023-08-01T07:24:33;94282.28;;;21.06;88.95
22047;BME280;11187;49.412;20.956;2023-08-01T07:27:20;94291.38;;;21.00;87.40
22047;BME280;11187;49.412;20.956;2023-08-01T07:29:54;94293.28;;;20.98;88.16
22047;BME280;11187;49.412;20.956;2023-08-01T07:32:40;94292.88;;;20.92;87.17
22047;BME280;11187;49.412;20.956;2023-08-01T07:35:16;94287.16;;;20.86;87.30
22047;BME280;11187;49.412;20.956;2023-08-01T07:38:02;94293.75;;;20.79;84.80
22047;BME280;11187;49.412;20.956;2023-08-01T07:40:36;94288.53;;;20.79;86.50
22047;BME280;11187;49.412;20.956;2023-08-01T07:43:23;94288.66;;;20.78;87.41
22047;BME280;11187;49.412;20.956;2023-08-01T07:45:57;94286.78;;;20.80;88.54
22047;BME280;11187;49.412;20.956;2023-08-01T07:48:45;94285.84;;;20.81;87.60
22047;BME280;11187;49.412;20.956;2023-08-01T07:51:18;94288.34;;;20.82;86.36
22047;BME280;11187;49.412;20.956;2023-08-01T07:54:05;94284.06;;;20.81;85.75
22047;BME280;11187;49.412;20.956;2023-08-01T07:56:38;94284.06;;;20.81;86.83
22047;BME280;11187;49.412;20.956;2023-08-01T07:59:28;94286.78;;;20.80;86.11
22047;BME280;11187;49.412;20.956;2023-08-01T08:02:02;94288.00;;;20.87;86.39
22047;BME280;11187;49.412;20.956;2023-08-01T08:04:50;94286.16;;;21.00;85.27
22047;BME280;11187;49.412;20.956;2023-08-01T08:07:23;94281.84;;;21.12;86.99
22047;BME280;11187;49.412;20.956;2023-08-01T08:10:10;94285.28;;;21.13;85.17
22047;BME280;11187;49.412;20.956;2023-08-01T08:12:43;94279.13;;;21.14;85.36
22047;BME280;11187;49.412;20.956;2023-08-01T08:15:37;94275.78;;;21.12;84.33
22047;BME280;11187;49.412;20.956;2023-08-01T08:18:31;94276.75;;;21.11;85.01
22047;BME280;11187;49.412;20.956;2023-08-01T08:21:25;94273.53;;;21.07;84.04
22047;BME280;11187;49.412;20.956;2023-08-01T08:24:19;94277.19;;;21.04;84.19
22047;BME280;11187;49.412;20.956;2023-08-01T08:27:15;94281.91;;;20.99;83.78
22047;BME280;11187;49.412;20.956;2023-08-01T08:29:48;94281.19;;;20.97;86.44
22047;BME280;11187;49.412;20.956;2023-08-01T08:32:35;94278.19;;;20.91;86.44
22047;BME280;11187;49.412;20.956;2023-08-01T08:35:09;94281.22;;;20.84;86.58
22047;BME280;11187;49.412;20.956;2023-08-01T08:37:57;94279.91;;;20.79;87.68
22047;BME280;11187;49.412;20.956;2023-08-01T08:40:33;94279.44;;;20.74;87.23
22047;BME280;11187;49.412;20.956;2023-08-01T08:43:27;94278.06;;;20.68;87.09
22047;BME280;11187;49.412;20.956;2023-08-01T08:46:02;94276.53;;;20.65;87.93
22047;BME280;11187;49.412;20.956;2023-08-01T08:48:57;94284.03;;;20.57;87.49
22047;BME280;11187;49.412;20.956;2023-08-01T08:51:31;94275.59;;;20.54;86.59
22047;BME280;11187;49.412;20.956;2023-08-01T08:54:19;94281.84;;;20.51;86.55
22047;BME280;11187;49.412;20.956;2023-08-01T08:56:52;94271.47;;;20.51;86.11
22047;BME280;11187;49.412;20.956;2023-08-01T08:59:47;94263.66;;;20.51;87.16
22047;BME280;11187;49.412;20.956;2023-08-01T09:02:41;94261.88;;;20.52;86.25
22047;BME280;11187;49.412;20.956;2023-08-01T09:05:14;94267.72;;;20.55;87.03
22047;BME280;11187;49.412;20.956;2023-08-01T09:08:15;94267.50;;;20.58;87.82
22047;BME280;11187;49.412;20.956;2023-08-01T09:11:11;94261.34;;;20.59;87.37
22047;BME280;11187;49.412;20.956;2023-08-01T09:14:08;94257.84;;;20.60;86.87
22047;BME280;11187;49.412;20.956;2023-08-01T09:17:06;94266.56;;;20.59;85.89
22047;BME280;11187;49.412;20.956;2023-08-01T09:20:05;94261.34;;;20.59;86.54
22047;BME280;11187;49.412;20.956;2023-08-01T09:22:46;94255.31;;;20.59;88.13
22047;BME280;11187;49.412;20.956;2023-08-01T09:25:41;94260.81;;;20.54;87.25
22047;BME280;11187;49.412;20.956;2023-08-01T09:28:37;94269.59;;;20.53;87.39
22047;BME280;11187;49.412;20.956;2023-08-01T09:31:33;94268.03;;;20.51;86.70
22047;BME280;11187;49.412;20.956;2023-08-01T09:34:27;94265.53;;;20.49;86.31
22047;BME280;11187;49.412;20.956;2023-08-01T09:37:00;94268.22;;;20.48;87.28
22047;BME280;11187;49.412;20.956;2023-08-01T09:39:53;94268.31;;;20.46;86.95
22047;BME280;11187;49.412;20.956;2023-08-01T09:42:41;94263.25;;;20.44;87.78
22047;BME280;11187;49.412;20.956;2023-08-01T09:45:35;94253.78;;;20.43;88.47
22047;BME280;11187;49.412;20.956;2023-08-01T09:48:08;94259.84;;;20.44;88.43
22047;BME280;11187;49.412;20.956;2023-08-01T09:51:16;94258.25;;;20.41;88.38
22047;BME280;11187;49.412;20.956;2023-08-01T09:56:38;94252.97;;;20.43;89.20
22047;BME280;11187;49.412;20.956;2023-08-01T09:59:13;94253.06;;;20.41;89.53
22047;BME280;11187;49.412;20.956;2023-08-01T10:02:15;94248.81;;;20.40;90.24
22047;BME280;11187;49.412;20.956;2023-08-01T10:05:09;94245.38;;;20.40;90.28
22047;BME280;11187;49.412;20.956;2023-08-01T10:08:03;94244.56;;;20.39;90.69
22047;BME280;11187;49.412;20.956;2023-08-01T10:10:57;94247.03;;;20.41;91.46
22047;BME280;11187;49.412;20.956;2023-08-01T10:13:31;94241.72;;;20.42;92.15
22047;BME280;11187;49.412;20.956;2023-08-01T10:16:19;94239.97;;;20.43;91.83
22047;BME280;11187;49.412;20.956;2023-08-01T10:18:52;94231.00;;;20.47;92.39
22047;BME280;11187;49.412;20.956;2023-08-01T10:21:41;94221.44;;;20.48;92.01
22047;BME280;11187;49.412;20.956;2023-08-01T10:24:16;94220.28;;;20.52;91.29
22047;BME280;11187;49.412;20.956;2023-08-01T10:27:20;94215.69;;;20.55;92.06
22047;BME280;11187;49.412;20.956;2023-08-01T10:29:57;94208.53;;;20.59;92.03
22047;BME280;11187;49.412;20.956;2023-08-01T10:32:44;94215.25;;;20.61;91.55
22047;BME280;11187;49.412;20.956;2023-08-01T10:35:17;94204.66;;;20.64;92.49
22047;BME280;11187;49.412;20.956;2023-08-01T10:38:10;94205.25;;;20.68;92.22
22047;BME280;11187;49.412;20.956;2023-08-01T10:40:44;94208.47;;;20.72;92.38
22047;BME280;11187;49.412;20.956;2023-08-01T10:43:32;94197.84;;;20.75;92.03
22047;BME280;11187;49.412;20.956;2023-08-01T10:46:05;94196.69;;;20.79;92.20
22047;BME280;11187;49.412;20.956;2023-08-01T10:48:52;94192.19;;;20.81;92.26
22047;BME280;11187;49.412;20.956;2023-08-01T10:51:34;94184.88;;;20.86;92.79
22047;BME280;11187;49.412;20.956;2023-08-01T10:54:24;94177.78;;;20.88;90.87
22047;BME280;11187;49.412;20.956;2023-08-01T10:56:57;94184.44;;;20.92;91.57
22047;BME280;11187;49.412;20.956;2023-08-01T10:59:46;94175.56;;;20.95;91.63
22047;BME280;11187;49.412;20.956;2023-08-01T11:02:20;94179.47;;;21.00;91.04
22047;BME280;11187;49.412;20.956;2023-08-01T11:05:08;94162.69;;;21.04;89.71
22047;BME280;11187;49.412;20.956;2023-08-01T11:07:41;94167.44;;;21.11;89.30
22047;BME280;11187;49.412;20.956;2023-08-01T11:10:35;94170.41;;;21.17;89.89
22047;BME280;11187;49.412;20.956;2023-08-01T11:13:29;94163.09;;;21.22;90.11
22047;BME280;11187;49.412;20.956;2023-08-01T11:16:05;94161.81;;;21.28;90.07
22047;BME280;11187;49.412;20.956;2023-08-01T11:18:52;94156.47;;;21.30;88.99
22047;BME280;11187;49.412;20.956;2023-08-01T11:21:28;94161.56;;;21.31;88.75
22047;BME280;11187;49.412;20.956;2023-08-01T11:24:17;94156.25;;;21.33;88.34
22047;BME280;11187;49.412;20.956;2023-08-01T11:26:51;94154.22;;;21.36;89.84
22047;BME280;11187;49.412;20.956;2023-08-01T11:29:39;94149.72;;;21.38;90.33
22047;BME280;11187;49.412;20.956;2023-08-01T11:32:13;94151.09;;;21.44;89.34
22047;BME280;11187;49.412;20.956;2023-08-01T11:35:03;94148.22;;;21.47;88.83
22047;BME280;11187;49.412;20.956;2023-08-01T11:37:36;94140.31;;;21.48;88.58
22047;BME280;11187;49.412;20.956;2023-08-01T11:40:23;94140.19;;;21.50;87.04
22047;BME280;11187;49.412;20.956;2023-08-01T11:43:17;94136.84;;;21.48;86.40
22047;BME280;11187;49.412;20.956;2023-08-01T11:46:12;94139.47;;;21.48;86.40
22047;BME280;11187;49.412;20.956;2023-08-01T11:48:46;94132.38;;;21.50;86.75
22047;BME280;11187;49.412;20.956;2023-08-01T11:51:40;94129.66;;;21.52;88.20
22047;BME280;11187;49.412;20.956;2023-08-01T11:54:15;94127.75;;;21.54;88.87
22047;BME280;11187;49.412;20.956;2023-08-01T11:57:09;94127.75;;;21.54;89.56
22047;BME280;11187;49.412;20.956;2023-08-01T11:59:50;94122.56;;;21.54;90.22
22047;BME280;11187;49.412;20.956;2023-08-01T12:02:44;94116.53;;;21.53;89.24
22047;BME280;11187;49.412;20.956;2023-08-01T12:05:24;94116.16;;;21.58;87.75
22047;BME280;11187;49.412;20.956;2023-08-01T12:08:11;94119.47;;;21.60;87.99
22047;BME280;11187;49.412;20.956;2023-08-01T12:10:45;94110.34;;;21.65;88.33
22047;BME280;11187;49.412;20.956;2023-08-01T12:13:32;94108.91;;;21.73;89.52
22047;BME280;11187;49.412;20.956;2023-08-01T12:16:05;94102.53;;;21.77;88.33
22047;BME280;11187;49.412;20.956;2023-08-01T12:18:52;94102.28;;;21.80;87.56
22047;BME280;11187;49.412;20.956;2023-08-01T12:21:28;94100.84;;;21.87;88.18
22047;BME280;11187;49.412;20.956;2023-08-01T12:24:15;94106.75;;;21.89;87.94
22047;BME280;11187;49.412;20.956;2023-08-01T12:26:48;94100.72;;;21.88;88.14
22047;BME280;11187;49.412;20.956;2023-08-01T12:29:35;94105.22;;;21.86;88.61
22047;BME280;11187;49.412;20.956;2023-08-01T12:32:08;94100.84;;;21.87;87.32
22047;BME280;11187;49.412;20.956;2023-08-01T12:35:14;94098.81;;;21.90;85.78
22047;BME280;11187;49.412;20.956;2023-08-01T12:37:47;94102.97;;;21.93;87.29
22047;BME280;11187;49.412;20.956;2023-08-01T12:40:41;94096.09;;;21.92;87.44
22047;BME280;11187;49.412;20.956;2023-08-01T12:43:35;94089.09;;;21.93;85.41
22047;BME280;11187;49.412;20.956;2023-08-01T12:46:08;94092.16;;;21.98;85.17
22047;BME280;11187;49.412;20.956;2023-08-01T12:49:02;94095.59;;;21.98;84.07
22047;BME280;11187;49.412;20.956;2023-08-01T12:51:56;94088.50;;;22.00;85.65
22047;BME280;11187;49.412;20.956;2023-08-01T12:54:50;94089.56;;;21.98;84.76
22047;BME280;11187;49.412;20.956;2023-08-01T12:57:44;94083.06;;;21.92;83.63
22047;BME280;11187;49.412;20.956;2023-08-01T13:00:39;94082.81;;;21.95;84.33
22047;BME280;11187;49.412;20.956;2023-08-01T13:03:12;94077.50;;;21.97;84.30
22047;BME280;11187;49.412;20.956;2023-08-01T13:05:59;94075.59;;;21.99;83.85
22047;BME280;11187;49.412;20.956;2023-08-01T13:08:32;94068.22;;;22.04;84.08
22047;BME280;11187;49.412;20.956;2023-08-01T13:11:19;94061.94;;;22.06;85.06
22047;BME280;11187;49.412;20.956;2023-08-01T13:13:52;94057.44;;;22.08;85.63
22047;BME280;11187;49.412;20.956;2023-08-01T13:16:39;94054.56;;;22.11;85.63
22047;BME280;11187;49.412;20.956;2023-08-01T13:19:12;94056.81;;;22.16;86.39
22047;BME280;11187;49.412;20.956;2023-08-01T13:22:06;94043.66;;;22.18;86.40
22047;BME280;11187;49.412;20.956;2023-08-01T13:25:00;94052.28;;;22.18;83.84
22047;BME280;11187;49.412;20.956;2023-08-01T13:27:37;94053.00;;;22.20;84.52
22047;BME280;11187;49.412;20.956;2023-08-01T13:30:24;94055.63;;;22.20;84.53
22047;BME280;11187;49.412;20.956;2023-08-01T13:32:57;94047.78;;;22.20;83.86
22047;BME280;11187;49.412;20.956;2023-08-01T13:35:44;94048.06;;;22.17;84.92
22047;BME280;11187;49.412;20.956;2023-08-01T13:38:17;94049.13;;;22.15;84.37
22047;BME280;11187;49.412;20.956;2023-08-01T13:41:04;94052.81;;;22.12;85.45
22047;BME280;11187;49.412;20.956;2023-08-01T13:43:37;94053.03;;;22.09;84.77
22047;BME280;11187;49.412;20.956;2023-08-01T13:46:31;94046.41;;;22.05;85.46
22047;BME280;11187;49.412;20.956;2023-08-01T13:49:04;94039.44;;;22.05;86.51
22047;BME280;11187;49.412;20.956;2023-08-01T13:51:53;94044.50;;;22.07;84.73
22047;BME280;11187;49.412;20.956;2023-08-01T13:54:26;94036.59;;;22.08;85.03
22047;BME280;11187;49.412;20.956;2023-08-01T13:57:13;94035.75;;;22.08;85.38
22047;BME280;11187;49.412;20.956;2023-08-01T13:59:46;94033.16;;;22.08;85.31
22047;BME280;11187;49.412;20.956;2023-08-01T14:02:50;94031.47;;;22.07;85.00
22047;BME280;11187;49.412;20.956;2023-08-01T14:05:27;94028.88;;;22.07;85.31
22047;BME280;11187;49.412;20.956;2023-08-01T14:08:14;94030.91;;;22.03;86.11
22047;BME280;11187;49.412;20.956;2023-08-01T14:10:47;94035.53;;;22.00;86.25
22047;BME280;11187;49.412;20.956;2023-08-01T14:13:34;94023.00;;;21.94;85.92